createdAt,value
2023-02-23T06:53:55.951Z,22.55
2023-02-23T06:59:28.569Z,24.95
2023-02-23T07:04:30.469Z,27.00
2023-02-23T07:09:32.490Z,26.75
2023-02-23T07:14:48.249Z,26.05
2023-02-23T07:19:50.148Z,24.45
2023-02-23T07:24:52.936Z,23.98
2023-02-23T07:29:54.709Z,23.55
2023-02-23T07:34:56.446Z,28.60
2023-02-23T07:40:04.682Z,25.58
2023-02-23T07:45:07.194Z,23.75
2023-02-23T07:50:10.400Z,26.38
2023-02-23T07:55:13.040Z,38.10
2023-02-23T08:00:15.066Z,34.25
2023-02-23T08:05:17.007Z,33.65
2023-02-23T08:10:18.848Z,32.78
2023-02-23T08:15:20.598Z,30.60
2023-02-23T08:20:22.273Z,28.27
2023-02-23T08:25:24.299Z,33.53
2023-02-23T08:30:26.086Z,32.95
2023-02-23T08:35:29.982Z,37.58
2023-02-23T08:40:31.661Z,45.60
2023-02-23T08:45:33.400Z,35.78
2023-02-23T08:50:35.174Z,42.70
2023-02-23T08:55:38.566Z,46.47
2023-02-23T09:00:40.467Z,42.05
2023-02-23T09:05:43.451Z,51.85
2023-02-23T09:10:45.250Z,39.53
2023-02-23T09:15:48.019Z,32.47
2023-02-23T09:20:50.352Z,30.83
2023-02-23T09:25:52.050Z,33.33
2023-02-23T09:30:53.717Z,28.02
2023-02-23T09:35:55.465Z,31.27
2023-02-23T09:40:57.169Z,44.22
2023-02-23T09:46:23.791Z,31.52
2023-02-23T09:51:27.357Z,30.88
2023-02-23T09:56:45.369Z,24.75
2023-02-23T10:01:50.142Z,32.75
2023-02-23T10:07:14.773Z,29.92
2023-02-23T10:12:44.471Z,35.40
2023-02-23T10:18:04.159Z,27.98
2023-02-23T10:23:15.583Z,29.42
2023-02-23T10:28:21.875Z,27.88
2023-02-23T10:33:30.013Z,27.00
2023-02-23T10:38:31.762Z,26.25
2023-02-23T10:43:33.766Z,26.48
2023-02-23T10:48:43.237Z,26.30
2023-02-23T10:53:45.068Z,27.30
2023-02-23T10:58:58.606Z,25.25
2023-02-23T11:04:19.159Z,24.30
2023-02-23T11:09:45.081Z,25.98
2023-02-23T11:14:53.717Z,25.88
2023-02-23T11:20:25.790Z,26.98
2023-02-23T11:25:32.467Z,28.02
2023-02-23T11:30:38.193Z,29.90
2023-02-23T11:35:40.003Z,25.80
2023-02-23T11:40:41.686Z,31.08
2023-02-23T11:45:50.352Z,24.13
2023-02-23T11:50:53.584Z,27.35
2023-02-23T11:55:59.278Z,33.33
2023-02-23T12:01:12.122Z,35.83
2023-02-23T12:06:35.879Z,30.88
2023-02-23T12:11:42.577Z,29.85
2023-02-23T12:16:51.159Z,28.67
2023-02-23T12:22:27.036Z,29.42
2023-02-23T12:27:38.298Z,27.75
2023-02-23T12:33:06.946Z,28.58
2023-02-23T12:38:33.575Z,27.02
2023-02-23T12:43:49.502Z,32.20
2023-02-23T12:49:03.295Z,28.27
2023-02-23T12:54:11.613Z,29.23
2023-02-23T12:59:19.382Z,26.00
2023-02-23T13:05:04.195Z,24.58
2023-02-23T13:10:32.061Z,24.90
2023-02-23T13:16:05.030Z,20.45
2023-02-23T13:21:31.760Z,17.77
2023-02-23T13:26:46.386Z,16.33
2023-02-23T13:31:48.517Z,15.68
2023-02-23T13:36:51.456Z,15.40
2023-02-23T13:42:22.020Z,15.10
2023-02-23T13:47:47.199Z,13.50
2023-02-23T13:52:49.736Z,13.13
2023-02-23T13:57:52.943Z,12.68
2023-02-23T14:02:54.814Z,14.27
2023-02-23T14:08:04.826Z,14.95
2023-02-23T14:13:25.734Z,15.57
2023-02-23T14:18:31.125Z,13.50
2023-02-23T14:23:54.093Z,13.88
2023-02-23T14:29:28.935Z,13.50
2023-02-23T14:34:49.206Z,13.35
2023-02-23T14:39:55.159Z,15.03
2023-02-23T14:45:27.341Z,15.32
2023-02-23T14:50:35.397Z,14.68
2023-02-23T14:55:43.446Z,14.73
2023-02-23T15:00:45.194Z,14.77
2023-02-23T15:06:07.089Z,14.73
2023-02-23T15:11:14.530Z,15.05
2023-02-23T15:16:24.328Z,14.57
2023-02-23T15:21:26.222Z,15.13
2023-02-23T15:26:37.431Z,16.50
2023-02-23T15:36:47.177Z,19.77
2023-02-23T15:41:49.986Z,18.83
2023-02-23T15:46:55.910Z,19.48
2023-02-23T15:52:01.572Z,21.85
2023-02-23T15:57:14.270Z,19.65
2023-02-23T16:02:23.884Z,21.45
2023-02-23T16:07:35.576Z,23.35
2023-02-23T16:12:39.497Z,24.08
2023-02-23T16:17:47.361Z,24.58
2023-02-23T16:22:53.669Z,23.08
2023-02-23T16:28:02.935Z,23.00
2023-02-23T16:33:21.864Z,22.67
2023-02-23T16:38:39.367Z,19.63
2023-02-23T16:43:41.139Z,19.15
2023-02-23T16:48:42.811Z,17.83
2023-02-23T16:53:44.997Z,17.92
2023-02-23T16:58:51.083Z,16.13
2023-02-23T17:03:54.641Z,15.65
2023-02-23T17:09:00.707Z,15.00
2023-02-23T17:14:02.468Z,14.98
2023-02-23T17:19:07.285Z,15.68
2023-02-23T17:24:10.986Z,14.35
2023-02-23T17:29:14.715Z,14.73
2023-02-23T17:34:16.746Z,14.80
2023-02-23T17:39:18.803Z,15.43
2023-02-23T17:44:20.668Z,14.50
2023-02-23T17:49:22.380Z,15.25
2023-02-23T17:54:24.082Z,16.60
2023-02-23T17:59:26.191Z,17.77
2023-02-23T18:04:28.369Z,17.33
2023-02-23T18:09:30.502Z,19.63
2023-02-23T18:14:33.173Z,23.95
2023-02-23T18:19:36.166Z,22.35
2023-02-23T18:24:38.627Z,25.45
2023-02-23T18:29:40.339Z,26.38
2023-02-23T18:34:42.044Z,26.60
2023-02-23T18:39:43.698Z,29.75
2023-02-23T18:44:45.554Z,29.50
2023-02-23T18:49:47.728Z,31.23
2023-02-23T18:54:49.456Z,32.08
2023-02-23T18:59:51.233Z,31.33
2023-02-23T19:04:53.052Z,29.58
2023-02-23T19:09:54.895Z,29.88
2023-02-23T19:14:57.854Z,28.27
2023-02-23T19:20:00.711Z,30.48
2023-02-23T19:25:02.561Z,30.45
2023-02-23T19:30:10.250Z,29.30
2023-02-23T19:35:16.231Z,27.27
2023-02-23T19:40:23.155Z,28.27
2023-02-23T19:45:26.084Z,28.35
2023-02-23T19:50:28.025Z,27.63
2023-02-23T19:55:29.752Z,29.38
2023-02-23T20:00:31.491Z,28.88
2023-02-23T20:05:42.892Z,29.80
2023-02-23T20:10:45.396Z,28.83
2023-02-23T20:15:47.148Z,29.55
2023-02-23T20:27:14.571Z,29.35
2023-02-23T20:32:17.450Z,27.98
2023-02-23T20:37:19.777Z,29.90
2023-02-23T20:42:21.478Z,30.00
2023-02-23T20:47:24.034Z,31.48
2023-02-23T20:52:25.756Z,37.80
2023-02-23T20:57:27.412Z,34.90
2023-02-23T21:02:29.684Z,30.88
2023-02-23T21:07:31.679Z,36.33
2023-02-23T21:12:34.232Z,31.63
2023-02-23T21:17:38.608Z,31.42
2023-02-23T21:22:40.932Z,29.90
2023-02-23T21:27:45.037Z,27.55
2023-02-23T21:32:48.481Z,28.67
2023-02-23T21:37:51.274Z,28.88
2023-02-23T21:42:53.049Z,28.55
2023-02-23T21:47:55.079Z,27.65
2023-02-23T21:52:58.314Z,28.90
2023-02-23T21:58:00.087Z,31.20
2023-02-23T22:03:03.530Z,27.00
2023-02-23T22:08:05.926Z,26.83
2023-02-23T22:13:08.414Z,26.55
2023-02-23T22:18:14.982Z,28.17
2023-02-23T22:23:17.184Z,29.60
2023-02-23T22:28:19.058Z,28.63
2023-02-23T22:33:23.199Z,28.90
2023-02-23T22:38:25.430Z,28.05
2023-02-23T22:43:28.149Z,29.88
2023-02-23T22:48:29.926Z,29.52
2023-02-23T22:53:31.658Z,30.02
2023-02-23T22:58:33.392Z,31.25
2023-02-23T23:03:38.279Z,30.25
2023-02-23T23:08:41.856Z,30.13
2023-02-23T23:13:46.604Z,29.95
2023-02-23T23:18:56.582Z,30.67
2023-02-23T23:24:01.026Z,30.70
2023-02-23T23:29:07.546Z,30.25
2023-02-23T23:34:10.826Z,30.67
2023-02-23T23:39:13.302Z,30.65
2023-02-23T23:44:20.824Z,29.58
2023-02-23T23:49:25.687Z,28.90
2023-02-23T23:54:32.710Z,29.65
2023-02-23T23:59:35.438Z,29.20
